createdAt,value
2023-12-15T00:01:58.546Z,99532.16
2023-12-15T00:07:23.526Z,99544.78
2023-12-15T00:12:50.489Z,99550.28
2023-12-15T00:18:15.610Z,99554.31
2023-12-15T00:23:40.445Z,99559.31
2023-12-15T00:29:08.498Z,99565.38
2023-12-15T00:34:32.485Z,99566.78
2023-12-15T00:39:57.462Z,99584.28
2023-12-15T00:45:31.477Z,99597.44
2023-12-15T00:50:56.448Z,99592.09
2023-12-15T00:56:26.508Z,99605.25
2023-12-15T01:01:54.505Z,99618.47
2023-12-15T01:07:19.565Z,99625.53
2023-12-15T01:12:44.476Z,99626.66
2023-12-15T01:18:11.585Z,99640.03
2023-12-15T01:23:36.497Z,99644.59
2023-12-15T01:29:00.507Z,99667.63
2023-12-15T01:34:28.456Z,99668.66
2023-12-15T01:39:52.476Z,99677.31
2023-12-15T01:45:24.489Z,99679.84
2023-12-15T01:50:52.472Z,99687.38
2023-12-15T01:56:25.478Z,99692.19
2023-12-15T02:01:50.530Z,99696.63
2023-12-15T02:07:17.491Z,99699.78
2023-12-15T02:12:42.523Z,99698.63
2023-12-15T02:18:06.615Z,99698.31
2023-12-15T02:23:34.578Z,99700.03
2023-12-15T02:28:58.507Z,99698.63
2023-12-15T02:34:23.539Z,99697.94
2023-12-15T02:39:50.487Z,99697.56
2023-12-15T02:45:23.526Z,99698.72
2023-12-15T02:50:48.507Z,99711.69
2023-12-15T02:56:15.543Z,99710.50
2023-12-15T03:01:40.519Z,99716.50
2023-12-15T03:07:04.511Z,99718.25
2023-12-15T03:12:32.537Z,99720.31
2023-12-15T03:17:56.556Z,99715.84
2023-12-15T03:23:21.559Z,99727.13
2023-12-15T03:28:48.513Z,99731.88
2023-12-15T03:34:13.500Z,99719.94
2023-12-15T03:39:37.500Z,99735.44
2023-12-15T03:45:05.594Z,99737.56
2023-12-15T03:50:29.573Z,99736.91
2023-12-15T03:55:54.569Z,99747.81
2023-12-15T04:01:22.569Z,99751.53
2023-12-15T04:06:47.520Z,99754.47
2023-12-15T04:12:11.534Z,99761.09
2023-12-15T04:17:40.099Z,99763.16
2023-12-15T04:23:04.572Z,99773.03
2023-12-15T04:28:29.558Z,99786.50
2023-12-15T04:33:56.676Z,99789.41
2023-12-15T04:39:21.524Z,99792.31
2023-12-15T04:44:53.567Z,99803.16
2023-12-15T04:50:21.641Z,99803.44
2023-12-15T04:55:45.555Z,99802.81
2023-12-15T05:01:10.574Z,99803.06
2023-12-15T05:06:39.605Z,99809.47
2023-12-15T05:12:04.593Z,99803.53
2023-12-15T05:17:30.575Z,99808.19
2023-12-15T05:22:58.580Z,99809.31
2023-12-15T05:28:23.555Z,99827.09
2023-12-15T05:33:48.653Z,99831.78
2023-12-15T05:39:15.578Z,99837.13
2023-12-15T05:44:40.585Z,99841.56
2023-12-15T05:50:04.688Z,99857.19
2023-12-15T05:55:32.564Z,99865.69
2023-12-15T06:00:57.631Z,99867.31
2023-12-15T06:06:23.663Z,99868.16
2023-12-15T06:11:56.574Z,99872.59
2023-12-15T06:17:21.595Z,99883.22
2023-12-15T06:22:45.578Z,99890.34
2023-12-15T06:28:13.575Z,99887.81
2023-12-15T06:33:37.652Z,99897.78
2023-12-15T06:39:02.587Z,99907.56
2023-12-15T06:44:37.658Z,99921.63
2023-12-15T06:50:02.655Z,99927.66
2023-12-15T06:55:26.628Z,99948.75
2023-12-15T07:00:55.610Z,99960.06
2023-12-15T07:06:19.788Z,99975.03
2023-12-15T07:11:44.654Z,99980.13
2023-12-15T07:17:11.612Z,99969.34
2023-12-15T07:22:36.585Z,99990.34
2023-12-15T07:28:01.589Z,99991.06
2023-12-15T07:33:29.745Z,100003.16
2023-12-15T07:38:53.642Z,100010.09
2023-12-15T07:44:24.681Z,100024.84
2023-12-15T07:49:52.647Z,100035.22
2023-12-15T07:55:16.619Z,100042.13
2023-12-15T08:00:41.634Z,100053.38
2023-12-15T08:06:08.709Z,100057.66
2023-12-15T08:11:33.658Z,100063.69
2023-12-15T08:16:57.674Z,100057.34
2023-12-15T08:22:25.640Z,100065.88
2023-12-15T08:27:49.686Z,100066.59
2023-12-15T08:33:14.744Z,100071.72
2023-12-15T08:38:41.697Z,100082.94
2023-12-15T08:44:11.474Z,100084.44
2023-12-15T08:49:40.669Z,100096.53
2023-12-15T08:55:08.649Z,100089.13
2023-12-15T09:00:34.672Z,100094.19
2023-12-15T09:06:21.248Z,100100.06
2023-12-15T09:11:46.637Z,100125.47
2023-12-15T09:17:13.672Z,100128.78
2023-12-15T09:22:37.644Z,100130.41
2023-12-15T09:28:05.650Z,100139.97
2023-12-15T09:33:29.769Z,100149.41
2023-12-15T09:38:55.657Z,100153.69
2023-12-15T09:44:30.659Z,100157.91
2023-12-15T09:50:01.732Z,100162.91
2023-12-15T09:55:26.702Z,100172.22
2023-12-15T10:00:54.703Z,100182.50
2023-12-15T10:06:18.705Z,100174.50
2023-12-15T10:11:43.685Z,100171.84
2023-12-15T10:17:10.732Z,100174.69
2023-12-15T10:22:35.994Z,100173.16
2023-12-15T10:28:02.236Z,100179.41
2023-12-15T10:33:30.777Z,100181.97
2023-12-15T10:38:55.690Z,100180.97
2023-12-15T10:44:22.699Z,100181.53
2023-12-15T10:49:53.143Z,100197.19
2023-12-15T10:55:21.789Z,100214.53
2023-12-15T11:00:46.691Z,100226.66
2023-12-15T11:06:15.775Z,100237.75
2023-12-15T11:11:39.739Z,100241.84
2023-12-15T11:17:04.824Z,100243.31
2023-12-15T11:22:31.688Z,100240.38
2023-12-15T11:28:18.679Z,100248.09
2023-12-15T11:33:57.878Z,100258.47
2023-12-15T11:39:35.742Z,100252.84
2023-12-15T11:45:06.711Z,100259.69
2023-12-15T11:50:32.754Z,100245.22
2023-12-15T11:56:00.684Z,100249.28
2023-12-15T12:01:25.704Z,100247.94
2023-12-15T12:06:49.707Z,100248.31
2023-12-15T12:12:17.712Z,100263.00
2023-12-15T12:17:43.785Z,100251.16
2023-12-15T12:23:08.760Z,100246.41
2023-12-15T12:28:35.711Z,100254.88
2023-12-15T12:34:00.831Z,100265.13
2023-12-15T12:39:24.721Z,100261.25
2023-12-15T12:44:52.718Z,100276.66
2023-12-15T12:50:18.080Z,100272.31
2023-12-15T12:55:42.747Z,100273.28
2023-12-15T13:01:09.871Z,100276.31
2023-12-15T13:06:34.792Z,100273.16
2023-12-15T13:11:58.749Z,100277.44
2023-12-15T13:17:26.787Z,100271.91
2023-12-15T13:22:51.295Z,100286.69
2023-12-15T13:28:17.748Z,100278.53
2023-12-15T13:33:46.876Z,100274.84
2023-12-15T13:39:12.813Z,100292.50
2023-12-15T13:44:43.795Z,100292.38
2023-12-15T13:50:11.817Z,100292.38
2023-12-15T13:55:35.788Z,100299.34
2023-12-15T14:01:00.837Z,100301.97
2023-12-15T14:06:29.331Z,100310.66
2023-12-15T14:11:54.793Z,100307.13
2023-12-15T14:17:18.819Z,100302.66
2023-12-15T14:22:46.771Z,100306.13
2023-12-15T14:28:10.818Z,100312.31
2023-12-15T14:33:35.881Z,100322.06
2023-12-15T14:39:02.806Z,100334.53
2023-12-15T14:44:27.864Z,100349.69
2023-12-15T14:49:52.853Z,100355.97
2023-12-15T14:55:20.815Z,100358.66
2023-12-15T15:00:44.841Z,100367.59
2023-12-15T15:06:10.903Z,100356.91
2023-12-15T15:11:38.898Z,100356.13
2023-12-15T15:17:03.795Z,100373.09
2023-12-15T15:22:34.994Z,100374.19
2023-12-15T15:28:02.850Z,100360.19
2023-12-15T15:33:27.884Z,100356.03
2023-12-15T15:38:52.832Z,100355.31
2023-12-15T15:44:22.318Z,100351.22
2023-12-15T15:49:47.809Z,100363.78
2023-12-15T15:55:12.838Z,100364.00
2023-12-15T16:00:40.941Z,100366.97
2023-12-15T16:06:04.859Z,100374.97
2023-12-15T16:11:29.877Z,100372.38
2023-12-15T16:16:56.861Z,100381.91
2023-12-15T16:22:21.840Z,100395.16
2023-12-15T16:27:45.837Z,100396.88
2023-12-15T16:33:14.932Z,100393.66
2023-12-15T16:38:40.830Z,100403.91
2023-12-15T16:44:05.845Z,100413.78
2023-12-15T16:49:32.880Z,100405.69
2023-12-15T16:54:57.864Z,100403.09
2023-12-15T17:00:27.861Z,100405.13
2023-12-15T17:05:55.909Z,100407.88
2023-12-15T17:11:20.844Z,100421.13
2023-12-15T17:16:45.907Z,100443.13
2023-12-15T17:22:12.960Z,100456.91
2023-12-15T17:27:37.888Z,100465.56
2023-12-15T17:33:01.915Z,100462.69
2023-12-15T17:38:29.876Z,100450.13
2023-12-15T17:43:55.889Z,100472.06
2023-12-15T17:49:21.015Z,100469.97
2023-12-15T17:54:47.911Z,100463.84
2023-12-15T18:00:13.881Z,100463.75
2023-12-15T18:05:37.899Z,100457.25
2023-12-15T18:11:05.892Z,100468.75
2023-12-15T18:16:36.991Z,100472.22
2023-12-15T18:22:02.012Z,100495.44
2023-12-15T18:27:30.994Z,100497.03
2023-12-15T18:32:55.921Z,100481.81
2023-12-15T18:38:19.869Z,100484.63
2023-12-15T18:43:55.930Z,100503.31
2023-12-15T18:49:21.982Z,100495.31
2023-12-15T18:54:46.955Z,100520.13
2023-12-15T19:00:19.847Z,100521.88
2023-12-15T19:05:44.913Z,100507.63
2023-12-15T19:11:10.892Z,100522.00
2023-12-15T19:16:37.888Z,100523.03
2023-12-15T19:22:02.905Z,100548.13
2023-12-15T19:27:26.919Z,100543.81
2023-12-15T19:32:55.006Z,100559.81
2023-12-15T19:38:18.935Z,100568.78
2023-12-15T19:43:45.910Z,100568.91
2023-12-15T19:49:12.972Z,100562.63
2023-12-15T19:54:37.963Z,100533.34
2023-12-15T20:00:02.958Z,100552.88
2023-12-15T20:05:31.031Z,100547.63
2023-12-15T20:10:54.945Z,100560.16
2023-12-15T20:16:20.019Z,100585.13
2023-12-15T20:21:48.050Z,100587.09
2023-12-15T20:27:19.944Z,100609.38
2023-12-15T20:32:45.127Z,100612.88
2023-12-15T20:38:12.952Z,100603.22
2023-12-15T20:43:36.971Z,100596.16
2023-12-15T20:49:02.047Z,100592.53
2023-12-15T20:54:29.003Z,100598.00
2023-12-15T20:59:53.953Z,100598.19
2023-12-15T21:05:20.058Z,100596.94
2023-12-15T21:10:47.982Z,100610.00
2023-12-15T21:16:14.024Z,100624.88
2023-12-15T21:21:41.966Z,100614.53
2023-12-15T21:27:09.982Z,100604.16
2023-12-15T21:32:34.982Z,100605.53
2023-12-15T21:37:58.960Z,100604.25
2023-12-15T21:43:27.050Z,100623.94
2023-12-15T21:48:52.073Z,100615.22
2023-12-15T21:54:16.958Z,100586.50
2023-12-15T21:59:43.982Z,100567.88
2023-12-15T22:05:08.960Z,100565.81
2023-12-15T22:10:33.014Z,100566.88
2023-12-15T22:16:01.018Z,100577.88
2023-12-15T22:21:24.990Z,100571.88
2023-12-15T22:26:52.985Z,100578.25
2023-12-15T22:32:21.992Z,100598.38
2023-12-15T22:37:46.996Z,100575.69
2023-12-15T22:43:12.041Z,100551.13
2023-12-15T22:48:40.130Z,100567.53
2023-12-15T22:54:04.002Z,100584.88
2023-12-15T22:59:29.078Z,100611.34
2023-12-15T23:04:57.064Z,100614.59
2023-12-15T23:10:22.094Z,100626.72
2023-12-15T23:15:46.072Z,100618.53
2023-12-15T23:21:23.278Z,100630.03
2023-12-15T23:26:50.031Z,100637.75
2023-12-15T23:32:16.015Z,100623.41
2023-12-15T23:37:42.993Z,100591.56
2023-12-15T23:43:09.060Z,100580.84
2023-12-15T23:48:33.090Z,100572.91
2023-12-15T23:54:01.050Z,100565.19
2023-12-15T23:59:33.397Z,100572.41
